Time;durP1;ratioP1;P1;durP2;ratioP2;P2;SDS_P1;SDS_P2;PMS_P1;PMS_P2;Temp;Humidity;BMP_temperature;BMP_pressure;BME280_temperature;BME280_humidity;BME280_pressure;Samples;Min_cycle;Max_cycle;Signal;HPM_P1;HPM_P2
2023/05/05 00:00:35;;;;;;;6.78;3.90;;;12.30;99.90;;;;;;5070273;28;20052;-80
2023/05/05 00:03:01;;;;;;;8.30;3.85;;;12.30;99.90;;;;;;5068235;28;20127;-81
2023/05/05 00:05:26;;;;;;;11.02;4.50;;;12.20;99.90;;;;;;5071494;28;20097;-81
2023/05/05 00:07:53;;;;;;;8.25;4.82;;;12.10;99.90;;;;;;5052769;28;20036;-80
2023/05/05 00:10:18;;;;;;;6.25;4.65;;;12.20;99.90;;;;;;5051902;28;20408;-82
2023/05/05 00:12:44;;;;;;;7.72;5.00;;;12.20;99.90;;;;;;5050336;28;20268;-82
2023/05/05 00:15:10;;;;;;;7.20;4.28;;;12.10;99.90;;;;;;5034477;28;20037;-82
2023/05/05 00:17:35;;;;;;;6.70;3.67;;;12.10;99.90;;;;;;5056666;28;20454;-80
2023/05/05 00:20:01;;;;;;;8.02;4.68;;;12.00;99.90;;;;;;5066265;28;20032;-81
2023/05/05 00:22:27;;;;;;;8.18;5.10;;;12.00;99.90;;;;;;5078621;28;20577;-80
2023/05/05 00:24:53;;;;;;;8.52;4.90;;;11.90;99.90;;;;;;5059145;28;20041;-81
2023/05/05 00:27:19;;;;;;;8.13;4.80;;;11.90;99.90;;;;;;5100418;28;20733;-81
2023/05/05 00:29:44;;;;;;;8.88;5.03;;;11.80;99.90;;;;;;5051842;28;20420;-81
2023/05/05 00:32:10;;;;;;;7.85;4.65;;;11.90;99.90;;;;;;5064823;28;20126;-80
2023/05/05 00:34:36;;;;;;;7.78;4.70;;;11.80;99.90;;;;;;5068781;28;20044;-80
2023/05/05 00:37:02;;;;;;;10.75;5.38;;;11.80;99.90;;;;;;5074970;28;20085;-80
2023/05/05 00:39:28;;;;;;;7.68;4.72;;;11.70;99.90;;;;;;5068573;28;20036;-80
2023/05/05 00:41:54;;;;;;;6.15;4.30;;;11.70;99.90;;;;;;5050144;28;20115;-81
2023/05/05 00:44:35;;;;;;;8.02;4.53;;;11.70;99.90;;;;;;5065478;28;20555;-79
2023/05/05 00:47:01;;;;;;;5.88;3.95;;;11.70;99.90;;;;;;5090900;28;20048;-79
2023/05/05 00:49:27;;;;;;;7.03;5.43;;;11.70;99.90;;;;;;5067472;28;20577;-79
2023/05/05 00:51:53;;;;;;;8.18;5.30;;;11.80;99.90;;;;;;5069986;28;20037;-81
2023/05/05 00:54:19;;;;;;;7.80;5.10;;;11.60;99.90;;;;;;5055782;28;20090;-82
2023/05/05 00:56:46;;;;;;;7.55;4.93;;;11.60;99.90;;;;;;5056403;28;21084;-82
2023/05/05 00:59:12;;;;;;;7.00;4.47;;;11.60;99.90;;;;;;5066369;28;20568;-80
2023/05/05 01:01:38;;;;;;;7.03;5.45;;;11.60;99.90;;;;;;5071212;28;20044;-82
2023/05/05 01:04:04;;;;;;;9.77;4.97;;;11.60;99.90;;;;;;5069833;28;20086;-82
2023/05/05 01:06:49;;;;;;;10.63;4.97;;;11.60;99.90;;;;;;5072518;28;20048;-81
2023/05/05 01:09:24;;;;;;;10.07;5.43;;;11.50;99.90;;;;;;5072748;28;20036;-81
2023/05/05 01:11:59;;;;;;;7.20;4.38;;;11.50;99.90;;;;;;5055410;28;20041;-81
2023/05/05 01:14:36;;;;;;;;;;;11.40;99.90;;;;;;5087802;28;20139;-80
2023/05/05 01:17:16;;;;;;;7.65;4.82;;;11.50;99.90;;;;;;5068870;28;19920;-81
2023/05/05 01:19:55;;;;;;;9.10;4.82;;;11.50;99.90;;;;;;5065237;28;20397;-80
2023/05/05 01:22:26;;;;;;;9.77;5.28;;;11.30;99.90;;;;;;5087436;28;20040;-81
2023/05/05 01:25:25;;;;;;;9.90;4.60;;;11.40;99.90;;;;;;5090706;28;20043;-80
2023/05/05 01:28:04;;;;;;;10.30;5.47;;;11.40;99.90;;;;;;5088933;28;20074;-82
2023/05/05 01:31:00;;;;;;;6.82;5.03;;;11.30;99.90;;;;;;5071403;28;20040;-81
2023/05/05 01:33:34;;;;;;;10.18;6.35;;;11.40;99.90;;;;;;5074284;28;20040;-82
2023/05/05 01:36:07;;;;;;;12.77;5.40;;;11.30;99.90;;;;;;5090498;28;20387;-81
2023/05/05 01:38:39;;;;;;;12.60;5.05;;;11.30;99.90;;;;;;5057821;28;20044;-80
2023/05/05 01:41:22;;;;;;;8.82;4.43;;;11.30;99.90;;;;;;5072659;28;20044;-81
2023/05/05 01:43:50;;;;;;;9.25;4.50;;;11.30;99.90;;;;;;5089135;28;20048;-81
2023/05/05 01:46:17;;;;;;;8.65;4.90;;;11.20;99.90;;;;;;5111980;27;20039;-80
2023/05/05 01:48:45;;;;;;;10.63;5.60;;;11.20;99.90;;;;;;5091680;28;20074;-81
2023/05/05 01:51:12;;;;;;;8.57;5.18;;;11.20;99.90;;;;;;5091662;28;20036;-81
2023/05/05 01:53:38;;;;;;;5.75;3.95;;;11.20;99.90;;;;;;5072262;28;20104;-80
2023/05/05 01:56:06;;;;;;;7.85;5.30;;;11.20;99.90;;;;;;5075269;27;20039;-80
2023/05/05 01:58:34;;;;;;;7.55;5.47;;;11.20;99.90;;;;;;5092262;28;20043;-81
2023/05/05 02:01:00;;;;;;;7.50;5.13;;;11.20;99.90;;;;;;5092162;28;20403;-80
2023/05/05 02:03:27;;;;;;;7.45;5.20;;;11.30;99.90;;;;;;5069566;28;20039;-79
2023/05/05 02:05:54;;;;;;;9.93;5.07;;;11.30;99.90;;;;;;5098056;28;20487;-80
2023/05/05 02:08:21;;;;;;;8.43;5.30;;;11.20;99.90;;;;;;5055805;28;20123;-80
2023/05/05 02:10:48;;;;;;;8.70;5.03;;;11.20;99.90;;;;;;5091354;28;20844;-79
2023/05/05 02:13:14;;;;;;;11.30;5.38;;;11.10;99.90;;;;;;5068227;28;20127;-80
2023/05/05 02:15:42;;;;;;;7.78;5.40;;;11.10;99.90;;;;;;5105269;28;20036;-81
2023/05/05 02:18:09;;;;;;;12.32;6.13;;;11.30;99.90;;;;;;5065243;28;20035;-81
2023/05/05 02:20:39;;;;;;;7.97;4.93;;;11.20;99.90;;;;;;5085289;27;20043;-81
2023/05/05 02:23:06;;;;;;;7.35;4.88;;;11.20;99.90;;;;;;5087161;28;20047;-81
2023/05/05 02:25:52;;;;;;;9.55;4.15;;;11.20;99.90;;;;;;5081446;28;20036;-81
2023/05/05 02:28:20;;;;;;;;;;;11.30;99.90;;;;;;5073494;28;20074;-80
2023/05/05 02:30:54;;;;;;;8.25;4.60;;;11.20;99.90;;;;;;5074828;27;20010;-81
2023/05/05 02:33:21;;;;;;;7.40;4.68;;;11.30;99.90;;;;;;5077966;27;20075;-81
2023/05/05 02:35:49;;;;;;;6.75;4.90;;;11.20;99.90;;;;;;5118454;27;20043;-81
2023/05/05 02:38:16;;;;;;;7.90;5.28;;;11.30;99.90;;;;;;5074585;28;20048;-81
2023/05/05 02:40:44;;;;;;;7.43;4.57;;;11.30;99.90;;;;;;5074645;28;20096;-81
2023/05/05 02:43:14;;;;;;;6.82;5.10;;;11.20;99.90;;;;;;5072466;28;20511;-81
2023/05/05 02:45:40;;;;;;;7.10;4.40;;;11.30;99.90;;;;;;5088409;28;20039;-82
2023/05/05 02:48:05;;;;;;;10.05;5.00;;;11.30;99.90;;;;;;5061001;28;20437;-82
2023/05/05 02:50:32;;;;;;;6.65;4.10;;;11.30;99.90;;;;;;5072267;28;20128;-81
2023/05/05 02:52:59;;;;;;;7.80;4.88;;;11.20;99.90;;;;;;5084964;28;20028;-81
2023/05/05 02:55:50;;;;;;;7.88;4.90;;;11.30;99.90;;;;;;5056307;28;20044;-81
2023/05/05 02:58:29;;;;;;;9.82;5.50;;;11.30;99.90;;;;;;5072088;28;20039;-82
2023/05/05 03:01:25;;;;;;;6.45;4.00;;;11.40;99.90;;;;;;5109377;28;20357;-83
2023/05/05 03:03:56;;;;;;;10.25;5.00;;;11.30;99.90;;;;;;5093338;28;20135;-82
2023/05/05 03:06:26;;;;;;;6.55;4.85;;;11.30;99.90;;;;;;5091621;28;20371;-81
2023/05/05 03:09:14;;;;;;;8.73;5.07;;;11.40;99.90;;;;;;5085326;28;20391;-81
2023/05/05 03:11:50;;;;;;;8.45;5.15;;;11.40;99.90;;;;;;5071653;28;20123;-81
2023/05/05 03:14:20;;;;;;;5.90;4.32;;;11.40;99.90;;;;;;5087341;28;20035;-81
2023/05/05 03:16:47;;;;;;;8.40;5.30;;;11.50;99.90;;;;;;5092708;28;20032;-81
2023/05/05 03:19:17;;;;;;;5.50;4.07;;;11.60;99.90;;;;;;5074941;28;20127;-80
2023/05/05 03:21:43;;;;;;;7.03;4.30;;;11.60;99.90;;;;;;5124867;28;20383;-81
2023/05/05 03:24:16;;;;;;;7.80;5.07;;;11.60;99.90;;;;;;5057086;28;20047;-80
2023/05/05 03:26:43;;;;;;;9.60;4.50;;;11.60;99.90;;;;;;5089834;28;20054;-80
2023/05/05 03:29:09;;;;;;;9.25;5.00;;;11.60;99.90;;;;;;5089575;28;20396;-80
2023/05/05 03:31:35;;;;;;;6.95;4.53;;;11.50;99.90;;;;;;5074612;28;20050;-81
2023/05/05 03:34:00;;;;;;;9.13;4.45;;;11.50;99.90;;;;;;5051273;28;20044;-82
2023/05/05 03:36:26;;;;;;;10.30;4.45;;;11.60;99.90;;;;;;5051958;28;20473;-84
2023/05/05 03:38:52;;;;;;;5.30;3.95;;;11.70;99.90;;;;;;5061575;28;20043;-82
2023/05/05 03:41:20;;;;;;;5.75;4.60;;;11.50;99.90;;;;;;5071377;28;20089;-82
2023/05/05 03:43:46;;;;;;;6.78;3.97;;;11.70;99.90;;;;;;5086115;28;20044;-81
2023/05/05 03:46:12;;;;;;;6.88;4.60;;;11.50;99.90;;;;;;5051341;28;20036;-85
2023/05/05 03:48:38;;;;;;;10.10;5.13;;;11.50;99.90;;;;;;5065584;28;20113;-82
2023/05/05 03:51:04;;;;;;;8.32;4.50;;;11.50;99.90;;;;;;5060012;28;20438;-82
2023/05/05 03:53:31;;;;;;;7.00;4.75;;;11.50;99.90;;;;;;5088169;28;20040;-83
2023/05/05 03:55:57;;;;;;;8.27;5.53;;;11.60;99.90;;;;;;5089768;28;20373;-82
2023/05/05 03:58:22;;;;;;;8.15;5.00;;;11.60;99.90;;;;;;5074686;28;20059;-83
2023/05/05 04:00:48;;;;;;;8.55;4.50;;;11.50;99.90;;;;;;5089126;28;20420;-83
2023/05/05 04:03:14;;;;;;;7.80;4.82;;;11.60;99.90;;;;;;5055519;28;20032;-80
2023/05/05 04:05:41;;;;;;;8.18;5.43;;;11.60;99.90;;;;;;5058232;28;20036;-83
2023/05/05 04:08:06;;;;;;;8.73;5.40;;;11.60;99.90;;;;;;5053896;28;20052;-80
2023/05/05 04:10:32;;;;;;;9.50;4.57;;;11.60;99.90;;;;;;5040262;28;20029;-79
2023/05/05 04:12:58;;;;;;;5.38;4.47;;;11.60;99.90;;;;;;5050957;28;20040;-80
2023/05/05 04:15:24;;;;;;;6.38;4.78;;;11.70;99.90;;;;;;5072652;28;20660;-80
2023/05/05 04:17:50;;;;;;;6.88;4.95;;;11.80;99.90;;;;;;5090290;28;20081;-79
2023/05/05 04:20:16;;;;;;;7.15;4.65;;;11.70;99.90;;;;;;5045235;28;20377;-83
2023/05/05 04:22:41;;;;;;;6.38;4.43;;;11.90;99.90;;;;;;5089655;28;20039;-81
2023/05/05 04:25:07;;;;;;;8.05;4.78;;;11.90;99.90;;;;;;5068906;28;20537;-81
2023/05/05 04:27:33;;;;;;;5.13;4.53;;;12.00;99.90;;;;;;5056127;28;20040;-81
2023/05/05 04:29:59;;;;;;;6.93;4.40;;;11.90;99.90;;;;;;5093763;28;20645;-81
2023/05/05 04:32:25;;;;;;;4.97;4.10;;;12.10;99.90;;;;;;5074218;28;20067;-80
2023/05/05 04:34:52;;;;;;;8.75;4.72;;;12.00;99.90;;;;;;5055533;28;20062;-81
2023/05/05 04:37:18;;;;;;;10.57;4.55;;;12.10;99.90;;;;;;5073786;28;20040;-80
2023/05/05 04:39:45;;;;;;;5.95;4.43;;;11.90;99.90;;;;;;5074460;28;20048;-80
2023/05/05 04:42:11;;;;;;;12.38;4.97;;;11.90;99.90;;;;;;5074254;28;20396;-80
2023/05/05 04:44:36;;;;;;;7.13;4.80;;;11.90;99.90;;;;;;5084099;28;20040;-79
2023/05/05 04:47:03;;;;;;;10.35;5.05;;;11.80;99.90;;;;;;5082480;28;20092;-80
2023/05/05 04:49:29;;;;;;;8.65;5.07;;;11.70;99.90;;;;;;5098168;28;20047;-80
2023/05/05 04:51:55;;;;;;;7.43;4.75;;;11.70;99.90;;;;;;5089359;28;20412;-80
2023/05/05 04:54:21;;;;;;;8.05;5.05;;;11.80;99.90;;;;;;5053698;28;20032;-79
2023/05/05 04:56:47;;;;;;;8.25;5.20;;;11.50;99.90;;;;;;5071669;28;20028;-81
2023/05/05 04:59:14;;;;;;;9.63;5.55;;;11.30;99.90;;;;;;5069885;28;20033;-83
2023/05/05 05:01:40;;;;;;;7.57;4.50;;;11.40;99.90;;;;;;5072392;28;20070;-82
2023/05/05 05:04:06;;;;;;;10.52;5.40;;;11.30;99.90;;;;;;5069735;28;20480;-79
2023/05/05 05:06:32;;;;;;;10.45;5.35;;;11.30;99.90;;;;;;5082782;28;20036;-79
2023/05/05 05:08:57;;;;;;;7.47;5.47;;;11.40;99.90;;;;;;5050956;28;20086;-79
2023/05/05 05:11:23;;;;;;;7.97;5.10;;;11.40;99.90;;;;;;5067172;28;20435;-80
2023/05/05 05:13:49;;;;;;;12.10;5.70;;;11.30;99.90;;;;;;5089434;28;20107;-80
2023/05/05 05:16:15;;;;;;;9.00;5.25;;;11.40;99.90;;;;;;5088192;28;20028;-76
2023/05/05 05:18:41;;;;;;;11.45;6.18;;;11.00;99.90;;;;;;5072544;28;20074;-77
2023/05/05 05:21:07;;;;;;;12.93;6.13;;;10.90;99.90;;;;;;5073115;28;20044;-80
2023/05/05 05:23:32;;;;;;;9.20;6.40;;;11.50;99.90;;;;;;5088936;28;20040;-83
2023/05/05 05:25:58;;;;;;;9.90;5.82;;;11.00;99.90;;;;;;5070529;28;20048;-79
2023/05/05 05:28:24;;;;;;;9.02;5.53;;;10.80;99.90;;;;;;5068609;28;20483;-79
2023/05/05 05:30:51;;;;;;;9.10;5.20;;;10.70;99.90;;;;;;5039348;28;20035;-76
2023/05/05 05:33:17;;;;;;;7.50;4.97;;;10.80;99.90;;;;;;5056092;28;20047;-82
2023/05/05 05:35:43;;;;;;;5.15;4.65;;;11.10;99.90;;;;;;5103848;28;20641;-79
2023/05/05 05:38:09;;;;;;;8.02;6.00;;;10.80;99.90;;;;;;5094548;28;20131;-77
2023/05/05 05:40:35;;;;;;;7.10;5.20;;;11.40;99.90;;;;;;5088452;28;20051;-75
2023/05/05 05:43:01;;;;;;;11.20;5.88;;;10.90;99.90;;;;;;5091383;28;20044;-79
2023/05/05 05:45:27;;;;;;;8.70;5.68;;;10.80;99.90;;;;;;5108292;28;20548;-77
2023/05/05 05:47:53;;;;;;;10.10;5.75;;;11.50;99.90;;;;;;5088764;28;20043;-77
2023/05/05 05:50:19;;;;;;;7.15;4.60;;;11.30;99.90;;;;;;5107473;28;20559;-81
2023/05/05 05:52:45;;;;;;;6.82;4.75;;;11.20;99.90;;;;;;5093002;28;20539;-83
2023/05/05 05:55:11;;;;;;;9.90;6.13;;;10.90;99.90;;;;;;5083776;27;20043;-81
2023/05/05 05:57:37;;;;;;;8.15;5.45;;;10.80;99.90;;;;;;5091533;28;20050;-80
2023/05/05 06:00:03;;;;;;;9.60;6.80;;;11.00;99.90;;;;;;5089864;28;20496;-78
2023/05/05 06:02:28;;;;;;;8.60;6.10;;;10.80;99.90;;;;;;5072052;28;20533;-74
2023/05/05 06:04:54;;;;;;;10.57;6.45;;;11.70;99.90;;;;;;5088391;28;20050;-73
2023/05/05 06:07:20;;;;;;;8.20;6.15;;;11.50;99.90;;;;;;5059003;28;20047;-80
2023/05/05 06:09:45;;;;;;;8.07;5.80;;;12.00;99.90;;;;;;5073426;28;20039;-79
2023/05/05 06:12:11;;;;;;;7.60;5.32;;;11.90;99.90;;;;;;5073756;28;20163;-77
2023/05/05 06:14:37;;;;;;;10.13;6.10;;;11.50;99.90;;;;;;5072640;28;20027;-79
2023/05/05 06:17:03;;;;;;;7.63;6.38;;;11.30;99.90;;;;;;5074147;28;20042;-77
2023/05/05 06:19:29;;;;;;;11.60;6.30;;;11.90;99.90;;;;;;5052408;28;20047;-77
2023/05/05 06:21:55;;;;;;;12.75;7.05;;;12.20;99.90;;;;;;5057246;28;20040;-80
2023/05/05 06:24:20;;;;;;;11.05;6.85;;;12.10;99.90;;;;;;5121733;27;20040;-82
2023/05/05 06:26:46;;;;;;;9.82;6.97;;;11.60;99.90;;;;;;5071870;28;20047;-77
2023/05/05 06:29:12;;;;;;;7.55;5.85;;;12.30;99.90;;;;;;5104619;28;20123;-78
2023/05/05 06:31:37;;;;;;;9.25;6.47;;;11.80;99.90;;;;;;5042326;28;20039;-79
2023/05/05 06:34:03;;;;;;;9.30;6.57;;;12.10;99.90;;;;;;5101246;28;20067;-76
2023/05/05 06:36:30;;;;;;;10.73;6.60;;;11.90;99.90;;;;;;5092203;28;20115;-79
2023/05/05 06:38:56;;;;;;;10.52;6.60;;;12.50;99.90;;;;;;5069242;28;20040;-79
2023/05/05 06:41:22;;;;;;;7.45;6.35;;;12.10;99.90;;;;;;5090256;28;20050;-78
2023/05/05 06:43:47;;;;;;;10.23;6.32;;;12.40;99.90;;;;;;5051387;28;20040;-76
2023/05/05 06:46:13;;;;;;;10.43;6.35;;;12.60;99.90;;;;;;5105271;28;20376;-77
2023/05/05 06:48:39;;;;;;;9.38;7.30;;;12.30;99.90;;;;;;5077285;28;20040;-79
2023/05/05 06:51:04;;;;;;;13.07;7.15;;;13.00;99.90;;;;;;5073923;28;20049;-76
2023/05/05 06:53:30;;;;;;;9.00;6.72;;;13.30;99.90;;;;;;5075086;27;20043;-77
2023/05/05 06:55:56;;;;;;;9.77;6.43;;;13.30;99.90;;;;;;5105668;28;20090;-75
2023/05/05 06:58:22;;;;;;;10.80;7.32;;;13.10;99.90;;;;;;5072792;28;20032;-75
2023/05/05 07:00:48;;;;;;;11.98;6.88;;;13.40;99.90;;;;;;5090533;28;20429;-76
2023/05/05 07:03:14;;;;;;;11.05;8.05;;;13.40;99.90;;;;;;5079663;28;20043;-75
2023/05/05 07:05:39;;;;;;;9.57;6.93;;;13.30;99.90;;;;;;5086628;28;20036;-80
2023/05/05 07:08:07;;;;;;;8.98;7.28;;;13.40;99.90;;;;;;5047172;28;20575;-81
2023/05/05 07:10:33;;;;;;;11.85;7.97;;;12.90;99.90;;;;;;5083847;28;20036;-77
2023/05/05 07:12:59;;;;;;;16.17;8.10;;;13.20;99.90;;;;;;5057100;28;20063;-78
2023/05/05 07:15:25;;;;;;;13.32;7.50;;;12.90;99.90;;;;;;5085323;28;20043;-81
2023/05/05 07:17:51;;;;;;;8.13;6.93;;;12.80;99.90;;;;;;5089876;28;20115;-77
2023/05/05 07:20:16;;;;;;;8.55;7.38;;;13.30;99.90;;;;;;5080672;28;20031;-78
2023/05/05 07:22:42;;;;;;;12.50;7.43;;;13.10;99.90;;;;;;5085967;28;20507;-80
2023/05/05 07:25:08;;;;;;;9.93;7.45;;;13.30;99.90;;;;;;5056640;28;20036;-81
2023/05/05 07:27:35;;;;;;;8.60;6.82;;;13.60;99.90;;;;;;5076211;28;20039;-80
2023/05/05 07:30:01;;;;;;;10.73;6.95;;;13.80;99.90;;;;;;5092291;28;20047;-81
2023/05/05 07:32:34;;;;;;;10.25;6.93;;;13.70;99.90;;;;;;5060346;28;20042;-76
2023/05/05 07:35:00;;;;;;;7.90;7.03;;;13.40;99.90;;;;;;5076078;27;20078;-78
2023/05/05 07:37:26;;;;;;;9.00;5.97;;;13.70;99.90;;;;;;5097547;28;20072;-79
2023/05/05 07:39:51;;;;;;;9.57;7.20;;;13.50;99.90;;;;;;5051021;28;20592;-75
2023/05/05 07:42:17;;;;;;;7.80;6.85;;;13.70;99.90;;;;;;5108577;28;20042;-76
2023/05/05 07:44:43;;;;;;;7.55;6.50;;;14.10;99.90;;;;;;5060848;28;20050;-83
2023/05/05 07:47:18;;;;;;;8.52;6.28;;;14.10;99.90;;;;;;5075879;28;20081;-79
2023/05/05 07:50:02;;;;;;;7.60;6.68;;;14.20;99.90;;;;;;5090204;28;20044;-75
2023/05/05 07:52:28;;;;;;;9.02;6.78;;;14.10;99.90;;;;;;5086398;28;20076;-78
2023/05/05 07:54:54;;;;;;;6.93;6.22;;;14.30;99.90;;;;;;5073743;28;20119;-78
2023/05/05 07:57:20;;;;;;;7.00;5.35;;;14.20;99.90;;;;;;5094007;28;20047;-79
2023/05/05 07:59:45;;;;;;;9.30;6.95;;;14.30;99.90;;;;;;5093340;28;20126;-79
2023/05/05 08:02:14;;;;;;;9.13;7.50;;;14.50;99.90;;;;;;5093028;28;20035;-84
2023/05/05 08:04:41;;;;;;;8.63;6.75;;;14.50;99.90;;;;;;5125969;27;20047;-82
2023/05/05 08:07:07;;;;;;;10.07;7.30;;;14.70;99.90;;;;;;5081079;28;20553;-82
2023/05/05 08:09:34;;;;;;;8.60;6.78;;;14.90;99.90;;;;;;5091307;28;20059;-77
2023/05/05 08:12:01;;;;;;;12.07;7.93;;;14.60;99.90;;;;;;5077268;28;20038;-75
2023/05/05 08:14:27;;;;;;;13.57;7.50;;;15.00;99.90;;;;;;5078054;28;20092;-76
2023/05/05 08:16:52;;;;;;;8.90;6.75;;;14.90;99.90;;;;;;5073017;28;20043;-80
2023/05/05 08:19:18;;;;;;;9.85;7.00;;;14.70;99.90;;;;;;5094003;28;20495;-77
2023/05/05 08:21:44;;;;;;;8.65;6.85;;;15.10;99.90;;;;;;5128424;27;20070;-76
2023/05/05 08:24:09;;;;;;;8.82;7.50;;;15.30;99.90;;;;;;5123525;27;20043;-78
2023/05/05 08:26:35;;;;;;;9.05;8.07;;;15.40;99.90;;;;;;5082598;28;20092;-80
2023/05/05 08:29:01;;;;;;;9.88;8.07;;;15.60;99.90;;;;;;5086701;28;20043;-74
2023/05/05 08:31:31;;;;;;;8.93;7.82;;;15.80;99.90;;;;;;5093699;28;20038;-78
2023/05/05 08:34:00;;;;;;;9.50;8.02;;;16.00;99.90;;;;;;5072886;28;20051;-78
2023/05/05 08:36:26;;;;;;;10.07;8.32;;;16.10;99.90;;;;;;5094470;28;20054;-79
2023/05/05 08:38:52;;;;;;;10.88;8.10;;;16.00;99.90;;;;;;5062390;28;20043;-78
2023/05/05 08:41:18;;;;;;;11.90;8.07;;;15.90;99.90;;;;;;5106362;28;20378;-81
2023/05/05 08:43:48;;;;;;;10.45;8.23;;;16.10;99.90;;;;;;5088233;28;20043;-76
2023/05/05 08:46:14;;;;;;;10.40;8.57;;;16.30;99.90;;;;;;5074483;28;20069;-81
2023/05/05 08:48:41;;;;;;;10.93;7.50;;;16.70;99.90;;;;;;5094871;28;20444;-79
2023/05/05 08:51:12;;;;;;;9.25;7.85;;;16.90;99.90;;;;;;5054843;28;20040;-78
2023/05/05 08:53:53;;;;;;;10.07;8.25;;;16.90;99.90;;;;;;5073950;28;20119;-80
2023/05/05 08:56:26;;;;;;;10.50;8.35;;;16.70;99.90;;;;;;5107908;28;20047;-80
2023/05/05 08:58:52;;;;;;;9.32;8.30;;;17.10;99.90;;;;;;5068521;28;20074;-79
2023/05/05 09:01:18;;;;;;;10.15;8.60;;;17.20;99.90;;;;;;5074674;28;20039;-85
2023/05/05 09:03:44;;;;;;;10.13;8.07;;;17.50;99.90;;;;;;5058254;28;20095;-77
2023/05/05 09:06:10;;;;;;;10.48;8.75;;;17.40;99.90;;;;;;5073975;28;20076;-79
2023/05/05 09:08:37;;;;;;;9.73;8.45;;;17.80;99.90;;;;;;5070726;28;20504;-80
2023/05/05 09:11:03;;;;;;;14.93;9.40;;;17.80;99.90;;;;;;5125907;28;20039;-83
2023/05/05 09:13:29;;;;;;;10.82;9.07;;;17.70;99.90;;;;;;5108835;28;20043;-81
2023/05/05 09:15:55;;;;;;;13.93;10.25;;;17.90;99.90;;;;;;5090820;28;20035;-80
2023/05/05 09:18:21;;;;;;;11.32;9.75;;;17.80;99.90;;;;;;5106106;28;20388;-79
2023/05/05 09:20:47;;;;;;;11.40;8.98;;;18.10;99.90;;;;;;5074843;28;20571;-79
2023/05/05 09:23:18;;;;;;;10.57;9.40;;;18.10;99.90;;;;;;5125497;28;20449;-76
2023/05/05 09:25:46;;;;;;;12.98;9.80;;;18.30;99.90;;;;;;5074547;28;20047;-82
2023/05/05 09:28:16;;;;;;;11.13;9.13;;;18.70;99.90;;;;;;5124707;28;20454;-83
2023/05/05 09:30:45;;;;;;;12.85;10.07;;;19.20;99.90;;;;;;5122326;28;20165;-82
2023/05/05 09:33:12;;;;;;;13.52;9.68;;;19.60;99.90;;;;;;5073348;28;20047;-78
2023/05/05 09:35:54;;;;;;;10.98;9.48;;;20.10;99.90;;;;;;5051206;28;1138537;-83
2023/05/05 09:38:22;;;;;;;13.13;9.55;;;20.00;99.90;;;;;;5124707;27;20039;-80
2023/05/05 09:40:52;;;;;;;11.07;8.65;;;19.90;99.90;;;;;;5088040;28;20104;-78
2023/05/05 09:43:20;;;;;;;10.38;9.27;;;20.70;99.90;;;;;;5077547;28;20043;-84
2023/05/05 09:45:47;;;;;;;11.23;9.32;;;20.60;99.90;;;;;;5107981;28;20100;-81
2023/05/05 09:48:27;;;;;;;10.27;9.20;;;20.70;99.90;;;;;;5089517;28;20727;-80
2023/05/05 09:50:54;;;;;;;13.02;10.27;;;20.30;99.90;;;;;;5070788;28;20043;-80
2023/05/05 09:53:23;;;;;;;13.38;10.23;;;20.10;99.90;;;;;;5103247;28;20043;-77
2023/05/05 09:55:59;;;;;;;11.75;10.02;;;19.90;99.90;;;;;;5090621;28;20036;-83
2023/05/05 09:58:27;;;;;;;11.02;9.90;;;20.80;99.90;;;;;;5126356;27;20163;-84
2023/05/05 10:00:54;;;;;;;10.98;9.23;;;20.40;99.90;;;;;;5096364;28;20047;-79
2023/05/05 10:03:20;;;;;;;12.38;9.48;;;20.20;99.90;;;;;;5070828;28;20090;-81
2023/05/05 10:05:56;;;;;;;11.35;10.18;;;20.30;99.90;;;;;;5074070;28;20449;-78
2023/05/05 10:08:23;;;;;;;10.57;9.48;;;20.30;99.90;;;;;;5091360;28;20104;-82
2023/05/05 10:10:54;;;;;;;11.70;9.95;;;21.00;99.90;;;;;;5098966;28;20051;-81
2023/05/05 10:13:23;;;;;;;10.57;9.57;;;20.70;99.90;;;;;;5058311;28;20043;-77
2023/05/05 10:15:51;;;;;;;10.05;9.05;;;20.90;99.90;;;;;;5091581;28;20391;-78
2023/05/05 10:18:25;;;;;;;11.77;10.52;;;20.70;99.90;;;;;;5107103;28;20044;-81
2023/05/05 10:20:57;;;;;;;12.60;10.00;;;20.00;99.90;;;;;;5104719;28;20075;-81
2023/05/05 10:23:26;;;;;;;11.20;10.13;;;20.00;99.90;;;;;;5090227;28;20053;-77
2023/05/05 10:26:02;;;;;;;12.05;9.63;;;19.90;99.90;;;;;;5116864;27;20092;-77
2023/05/05 10:28:32;;;;;;;10.00;9.00;;;20.30;99.90;;;;;;5107011;27;20039;-80
2023/05/05 10:31:00;;;;;;;11.95;10.48;;;20.90;99.90;;;;;;5094458;28;20035;-81
2023/05/05 10:33:38;;;;;;;11.65;10.52;;;21.30;99.90;;;;;;5092386;28;20035;-82
2023/05/05 10:36:07;;;;;;;10.68;8.80;;;21.80;99.90;;;;;;5074182;28;20097;-79
2023/05/05 10:38:34;;;;;;;10.93;9.40;;;21.50;99.90;;;;;;5046559;28;20479;-84
2023/05/05 10:41:03;;;;;;;10.43;9.15;;;21.90;99.90;;;;;;5059886;28;20131;-77
2023/05/05 10:43:30;;;;;;;12.27;10.38;;;22.00;99.90;;;;;;5066653;28;20044;-77
2023/05/05 10:45:56;;;;;;;12.25;10.93;;;22.10;99.90;;;;;;5072005;28;20380;-77
2023/05/05 10:48:42;;;;;;;13.85;10.88;;;21.80;99.90;;;;;;5054832;28;20415;-76
2023/05/05 10:51:26;;;;;;;11.25;10.10;;;22.10;99.90;;;;;;5088817;28;20825;-84
2023/05/05 10:54:10;;;;;;;12.00;10.77;;;22.70;99.90;;;;;;5073952;28;20032;-77
2023/05/05 10:56:39;;;;;;;11.57;10.40;;;22.70;99.90;;;;;;5088328;28;20682;-83
2023/05/05 10:59:36;;;;;;;12.20;10.93;;;22.50;99.90;;;;;;5090789;28;20426;-79
2023/05/05 11:02:25;;;;;;;11.88;10.65;;;22.70;99.90;;;;;;5093162;28;20081;-83
2023/05/05 11:05:08;;;;;;;12.30;10.98;;;23.30;99.90;;;;;;5090814;28;20051;-79
2023/05/05 11:07:34;;;;;;;11.98;10.63;;;23.40;83.30;;;;;;5076198;28;20047;-79
2023/05/05 11:10:04;;;;;;;16.63;11.75;;;23.30;99.90;;;;;;5070758;28;20044;-82
2023/05/05 11:12:32;;;;;;;11.40;10.20;;;23.40;99.90;;;;;;5073889;28;20032;-83
2023/05/05 11:15:22;;;;;;;12.93;11.20;;;23.70;99.90;;;;;;5073941;28;20447;-77
2023/05/05 11:17:48;;;;;;;13.32;11.43;;;23.20;99.90;;;;;;5070628;28;20388;-77
2023/05/05 11:20:14;;;;;;;13.05;11.82;;;22.70;99.90;;;;;;5104366;28;20040;-78
2023/05/05 11:23:03;;;;;;;11.73;10.63;;;22.60;99.90;;;;;;5073836;28;20040;-80
2023/05/05 11:25:35;;;;;;;12.38;10.82;;;22.70;99.90;;;;;;5079370;28;20062;-83
2023/05/05 11:28:05;;;;;;;12.88;11.65;;;22.60;99.90;;;;;;5088244;28;20055;-79
2023/05/05 11:30:31;;;;;;;13.07;11.07;;;22.60;99.90;;;;;;5107616;28;20047;-80
2023/05/05 11:33:29;;;;;;;12.40;11.10;;;23.20;99.90;;;;;;5087082;28;20131;-78
2023/05/05 11:35:55;;;;;;;13.00;11.70;;;22.40;99.90;;;;;;5101395;28;20051;-80
2023/05/05 11:38:48;;;;;;;13.32;10.60;;;22.90;99.90;;;;;;5072953;28;20055;-85
2023/05/05 11:41:38;;;;;;;11.63;10.48;;;22.70;99.90;;;;;;5107736;28;20054;-80
2023/05/05 11:44:32;;;;;;;14.65;12.52;;;23.00;99.90;;;;;;5090654;28;20058;-80
2023/05/05 11:46:58;;;;;;;13.85;11.52;;;22.90;99.90;;;;;;5073648;28;20044;-79
2023/05/05 11:49:31;;;;;;;15.13;12.50;;;23.30;99.90;;;;;;5070582;28;20047;-75
2023/05/05 11:52:01;;;;;;;14.05;12.60;;;23.20;99.90;;;;;;5102039;28;20039;-81
2023/05/05 11:54:28;;;;;;;16.65;13.52;;;23.50;99.90;;;;;;5090105;28;20024;-82
2023/05/05 11:56:57;;;;;;;13.85;12.43;;;23.60;99.90;;;;;;5089922;28;20044;-76
2023/05/05 11:59:23;;;;;;;12.23;11.00;;;23.50;99.90;;;;;;5107630;28;20069;-77
2023/05/05 12:01:49;;;;;;;13.15;11.15;;;23.20;99.90;;;;;;5090552;28;20040;-76
2023/05/05 12:04:23;;;;;;;12.40;10.95;;;23.30;99.90;;;;;;5069830;28;20110;-77
2023/05/05 12:06:49;;;;;;;13.13;11.82;;;23.30;99.90;;;;;;5056073;28;20044;-81
2023/05/05 12:09:24;;;;;;;13.40;11.57;;;23.00;99.90;;;;;;5090501;28;20575;-81
2023/05/05 12:11:55;;;;;;;12.15;9.70;;;23.00;99.90;;;;;;5075844;28;20506;-80
2023/05/05 12:14:22;;;;;;;15.15;11.02;;;23.10;99.90;;;;;;5075423;28;20028;-77
2023/05/05 12:17:07;;;;;;;12.77;10.68;;;22.90;99.90;;;;;;5056555;28;20036;-78
2023/05/05 12:19:34;;;;;;;10.75;9.63;;;22.80;99.90;;;;;;5082844;28;20035;-80
2023/05/05 12:22:01;;;;;;;11.20;9.52;;;22.50;99.90;;;;;;5077266;28;20693;-78
2023/05/05 12:24:29;;;;;;;10.88;9.68;;;22.50;99.90;;;;;;5092976;28;20060;-81
2023/05/05 12:27:06;;;;;;;11.38;10.05;;;22.30;99.90;;;;;;5072612;28;20095;-80
2023/05/05 12:29:31;;;;;;;10.43;9.30;;;22.20;99.90;;;;;;5084853;28;20088;-79
2023/05/05 12:31:58;;;;;;;11.45;9.70;;;22.50;99.90;;;;;;5111256;28;20146;-80
2023/05/05 12:34:25;;;;;;;10.13;8.98;;;22.30;99.90;;;;;;5090761;28;20078;-81
2023/05/05 12:36:51;;;;;;;11.10;9.32;;;22.30;99.90;;;;;;5094035;28;20039;-82
2023/05/05 12:39:16;;;;;;;11.38;10.13;;;22.40;99.90;;;;;;5073003;28;20150;-82
2023/05/05 12:41:42;;;;;;;11.02;9.88;;;22.80;99.90;;;;;;5106987;28;20047;-79
2023/05/05 12:44:08;;;;;;;12.55;9.88;;;23.50;99.90;;;;;;5078088;28;20074;-80
2023/05/05 12:46:45;;;;;;;11.40;10.18;;;22.90;99.90;;;;;;5076751;28;20054;-78
2023/05/05 12:49:11;;;;;;;12.20;10.07;;;22.70;99.90;;;;;;5092679;28;20066;-76